Pagrindinis puslapis
METAR-TAF:

METAR-TAF

Oro uostai :

Biak, Indonezija

platuma: 01-11S, ilguma: 136-07E, Aukštis: 11 m

Dabartinis oras

Ataskaita buvo paskelbta 3 valandos ir 42 minutes, ne 17:00 UTC
Vėjas 8 kt iš Vakarų/Pietvakarių
Temperatūra 28°C
Drėgmė 84%
Slėgis 1010 hPa
Matomumas 10 km arba daugiau
Išsisklaidę debesys ne aukštis 1800 ft
Su prošvaistėmis ne aukštis 10000 ft

METAR: WABB 201700Z 24008KT 9999 SCT018 BKN100 28/25 Q1010 NOSIG

Laikas: 03:42 (20:42 UTC)

Prognozė

Ataskaita buvo paskelbta 3 valandos ir 42 minutes, ne 17:00 UTC
Prognozė galioja nuo 20 metu 18 UTC su 22 metu 00 UTC
Vėjas 4 kt iš Vakarų/Pietvakarių
Matomumas 10 km arba daugiau
Išsisklaidę debesys ne aukštis 1800 ft
Tapsmas
nuo 20 metu 22 UTC su 21 metu 00 UTC
Vėjas 10 kt iš Pietų/Pietvakarių

TAF: WABB 201700Z 2018/2200 25004KT 9999 SCT018 BECMG 2022/2100 20010KT

Orai ataskaitas ir orų prognozės (METAR, TAF).

turimą stotys yra geltonos ir raudonos taškus žemėlapyje.

Perkelti pele per norėdami pamatyti stoties vardą.

Tada spustelėkite, norėdami matyti oro stebėjimo ir prognozės.

Norėdami pakeisti žemėlapį: spustelėkite ant žalios mygtukų su juodo kryžiaus žemyn,; žalią mygtuką su brūkšneliu, jei norite nutolinti; arba žalių rodyklių gretimoms žemėlapius.


METAR-TAF: